Time;durP1;ratioP1;P1;durP2;ratioP2;P2;SDS_P1;SDS_P2;PMS_P1;PMS_P2;Temp;Humidity;BMP_temperature;BMP_pressure;BME280_temperature;BME280_humidity;BME280_pressure;Samples;Min_cycle;Max_cycle;Signal;HPM_P1;HPM_P2
2022/07/22 00:01:05;;;;;;;6.23;5.30;;;18.00;99.90;;;;;;5093810;28;20556;-83
2022/07/22 00:03:32;;;;;;;5.30;4.63;;;18.00;99.90;;;;;;5074257;28;21036;-81
2022/07/22 00:05:59;;;;;;;5.30;4.63;;;18.00;99.90;;;;;;5084396;28;20453;-80
2022/07/22 00:08:27;;;;;;;5.73;4.43;;;17.90;99.90;;;;;;5074612;28;20584;-82
2022/07/22 00:10:54;;;;;;;5.00;4.20;;;18.00;99.90;;;;;;5081826;28;20545;-82
2022/07/22 00:13:21;;;;;;;6.30;4.00;;;18.00;99.90;;;;;;5093420;28;20447;-81
2022/07/22 00:15:48;;;;;;;6.93;3.63;;;17.90;99.90;;;;;;5080695;28;20463;-82
2022/07/22 00:18:14;;;;;;;4.10;3.23;;;18.00;99.90;;;;;;5074153;28;20482;-81
2022/07/22 00:20:42;;;;;;;5.80;4.00;;;18.00;99.90;;;;;;5074426;28;20486;-81
2022/07/22 00:23:09;;;;;;;7.30;3.00;;;18.00;99.90;;;;;;5080212;28;20459;-82
2022/07/22 00:25:38;;;;;;;3.70;2.47;;;18.00;99.90;;;;;;5076509;28;20546;-83
2022/07/22 00:28:05;;;;;;;3.50;2.50;;;18.10;99.90;;;;;;5084202;28;20560;-81
2022/07/22 00:30:32;;;;;;;2.83;2.37;;;18.10;99.90;;;;;;5095571;28;20456;-82
2022/07/22 00:32:58;;;;;;;4.97;4.20;;;18.10;99.90;;;;;;5097745;28;20492;-85
2022/07/22 00:35:25;;;;;;;4.03;2.90;;;18.00;99.90;;;;;;5098937;28;20449;-82
2022/07/22 00:37:52;;;;;;;3.33;2.97;;;18.10;99.90;;;;;;5080998;28;20569;-82
2022/07/22 00:40:19;;;;;;;4.50;3.20;;;18.10;99.90;;;;;;5081473;28;20542;-83
2022/07/22 00:42:49;;;;;;;3.20;2.90;;;18.00;99.90;;;;;;5094288;28;20893;-82
2022/07/22 00:45:16;;;;;;;6.53;4.00;;;18.00;99.90;;;;;;5080342;28;20516;-82
2022/07/22 00:47:42;;;;;;;3.10;2.80;;;18.00;99.90;;;;;;5096489;28;20572;-84
2022/07/22 00:50:10;;;;;;;4.93;3.60;;;18.00;99.90;;;;;;5099974;28;20456;-84
2022/07/22 00:52:37;;;;;;;5.90;3.53;;;17.90;99.90;;;;;;5095135;28;20452;-84
2022/07/22 00:55:05;;;;;;;6.20;4.03;;;17.90;99.90;;;;;;5079700;28;20543;-81
2022/07/22 00:57:32;;;;;;;5.20;3.80;;;17.80;99.90;;;;;;5077104;28;20473;-81
2022/07/22 01:00:01;;;;;;;5.50;3.67;;;17.80;99.90;;;;;;5081632;28;20474;-82
2022/07/22 01:04:57;;;;;;;8.10;3.50;;;17.90;99.90;;;;;;5060362;22;20601;-84
2022/07/22 01:07:24;;;;;;;6.77;2.87;;;17.90;99.90;;;;;;5032507;28;20449;-84
2022/07/22 01:09:50;;;;;;;3.70;2.70;;;17.90;99.90;;;;;;5058562;28;20937;-83
2022/07/22 01:12:17;;;;;;;4.40;3.20;;;17.80;99.90;;;;;;5043931;28;20526;-83
2022/07/22 01:14:44;;;;;;;5.50;4.07;;;17.90;99.90;;;;;;5055685;28;20510;-85
2022/07/22 01:17:12;;;;;;;7.07;4.00;;;17.90;99.90;;;;;;5036871;28;20555;-83
2022/07/22 01:19:39;;;;;;;5.30;3.93;;;17.90;99.90;;;;;;5047858;28;20455;-84
2022/07/22 01:22:08;;;;;;;5.57;4.50;;;17.90;99.90;;;;;;5039568;28;20499;-84
2022/07/22 01:24:35;;;;;;;5.77;4.83;;;17.90;99.90;;;;;;5048375;28;20573;-82
2022/07/22 01:27:02;;;;;;;6.73;4.23;;;17.80;99.90;;;;;;5060469;28;20455;-83
2022/07/22 01:29:29;;;;;;;6.80;5.37;;;17.90;99.90;;;;;;5060917;28;20583;-84
2022/07/22 01:31:56;;;;;;;6.43;5.33;;;17.90;99.90;;;;;;5060772;28;20457;-83
2022/07/22 01:34:23;;;;;;;7.43;5.20;;;17.80;99.90;;;;;;5060636;28;20465;-84
2022/07/22 01:36:50;;;;;;;5.70;3.93;;;17.80;99.90;;;;;;5060904;28;20505;-83
2022/07/22 01:39:18;;;;;;;6.47;5.03;;;17.90;99.90;;;;;;5062326;28;20493;-84
2022/07/22 01:41:45;;;;;;;5.70;4.20;;;17.90;99.90;;;;;;5061525;28;20451;-85
2022/07/22 01:44:12;;;;;;;6.17;4.60;;;17.90;99.90;;;;;;5047544;28;20506;-84
2022/07/22 01:46:39;;;;;;;7.90;4.07;;;17.90;99.90;;;;;;5042514;28;20454;-86
2022/07/22 01:49:06;;;;;;;8.67;4.20;;;17.90;99.90;;;;;;5056661;28;20892;-83
2022/07/22 01:51:33;;;;;;;5.57;3.80;;;17.80;99.90;;;;;;5051955;28;20462;-84
2022/07/22 01:54:00;;;;;;;6.47;4.80;;;17.90;99.90;;;;;;5053261;28;20466;-83
2022/07/22 01:56:28;;;;;;;10.00;4.07;;;17.90;99.90;;;;;;5061350;28;20544;-85
2022/07/22 01:58:55;;;;;;;6.37;3.50;;;17.90;99.90;;;;;;5061413;28;20531;-84
2022/07/22 02:01:22;;;;;;;5.03;3.60;;;17.90;99.90;;;;;;5061821;28;20451;-84
2022/07/22 02:03:49;;;;;;;7.07;3.63;;;17.90;99.90;;;;;;5060877;28;20579;-83
2022/07/22 02:06:16;;;;;;;3.90;2.50;;;17.90;99.90;;;;;;5062270;28;20481;-84
2022/07/22 02:08:42;;;;;;;6.73;3.60;;;17.90;99.90;;;;;;5062489;28;20516;-84
2022/07/22 02:11:09;;;;;;;5.07;2.80;;;17.90;99.90;;;;;;5061533;28;20444;-84
2022/07/22 02:13:37;;;;;;;6.17;3.03;;;17.90;99.90;;;;;;5060615;28;20567;-85
2022/07/22 02:16:05;;;;;;;5.43;3.00;;;17.80;99.90;;;;;;5062980;28;20457;-85
2022/07/22 02:18:32;;;;;;;5.90;3.00;;;17.80;99.90;;;;;;5062784;28;20478;-84
2022/07/22 02:20:59;;;;;;;7.60;3.00;;;17.80;99.90;;;;;;5064976;28;20791;-84
2022/07/22 02:23:25;;;;;;;4.20;2.90;;;17.80;99.90;;;;;;5076985;28;20483;-82
2022/07/22 02:25:52;;;;;;;5.43;3.40;;;17.80;99.90;;;;;;5060708;28;20490;-84
2022/07/22 02:28:19;;;;;;;4.43;2.90;;;17.80;99.90;;;;;;5060324;28;20580;-84
2022/07/22 02:30:47;;;;;;;6.53;3.03;;;17.80;99.90;;;;;;5062135;28;20550;-84
2022/07/22 02:33:14;;;;;;;5.43;3.60;;;17.70;99.90;;;;;;5061672;28;20509;-84
2022/07/22 02:35:41;;;;;;;4.37;3.20;;;17.80;99.90;;;;;;5062995;28;20476;-84
2022/07/22 02:38:08;;;;;;;4.17;3.23;;;17.80;99.90;;;;;;5062234;28;20490;-83
2022/07/22 02:40:35;;;;;;;3.50;2.60;;;17.80;99.90;;;;;;5062499;28;20537;-84
2022/07/22 02:43:02;;;;;;;6.17;3.73;;;17.80;99.90;;;;;;5061211;28;20489;-84
2022/07/22 02:45:29;;;;;;;7.93;3.00;;;17.80;99.90;;;;;;5063051;28;20449;-83
2022/07/22 02:47:57;;;;;;;4.60;3.47;;;17.80;99.90;;;;;;5061681;28;20487;-86
2022/07/22 02:50:24;;;;;;;8.03;4.30;;;17.80;99.90;;;;;;5061966;28;20581;-84
2022/07/22 02:52:52;;;;;;;6.80;3.30;;;17.80;99.90;;;;;;5045387;28;20476;-85
2022/07/22 02:55:20;;;;;;;4.47;3.27;;;17.80;99.90;;;;;;5062970;28;20552;-84
2022/07/22 02:57:47;;;;;;;4.03;3.10;;;17.80;99.90;;;;;;5061826;28;20515;-83
2022/07/22 03:00:15;;;;;;;4.97;3.07;;;17.80;99.90;;;;;;5063869;28;20457;-82
2022/07/22 03:02:42;;;;;;;4.20;2.97;;;17.70;99.90;;;;;;5061230;28;20490;-84
2022/07/22 03:05:11;;;;;;;4.70;2.63;;;17.70;99.90;;;;;;5061586;28;20493;-85
2022/07/22 03:07:38;;;;;;;6.73;3.40;;;17.70;99.90;;;;;;5062185;28;20482;-84
2022/07/22 03:10:05;;;;;;;4.83;3.33;;;17.60;99.90;;;;;;5061447;28;20509;-84
2022/07/22 03:12:32;;;;;;;4.03;3.00;;;17.50;99.90;;;;;;5062170;28;20486;-84
2022/07/22 03:14:59;;;;;;;5.93;3.00;;;17.60;99.90;;;;;;5062267;28;20526;-83
2022/07/22 03:17:26;;;;;;;4.33;3.37;;;17.60;99.90;;;;;;5061655;28;20483;-84
2022/07/22 03:19:53;;;;;;;4.30;3.17;;;17.60;99.90;;;;;;5062864;28;20516;-85
2022/07/22 03:22:21;;;;;;;6.20;3.77;;;17.60;99.90;;;;;;5063149;28;20496;-84
2022/07/22 03:24:48;;;;;;;4.93;3.43;;;17.50;99.90;;;;;;5061981;28;20501;-84
2022/07/22 03:27:15;;;;;;;11.27;3.57;;;17.60;99.90;;;;;;5062463;28;20518;-84
2022/07/22 03:29:42;;;;;;;6.80;3.53;;;17.60;99.90;;;;;;5062472;28;20522;-84
2022/07/22 03:32:09;;;;;;;6.63;4.10;;;17.60;99.90;;;;;;5051698;28;20526;-84
2022/07/22 03:34:35;;;;;;;8.70;5.20;;;17.60;99.90;;;;;;5067046;28;20478;-87
2022/07/22 03:37:02;;;;;;;5.20;3.93;;;17.40;99.90;;;;;;5064578;28;20485;-85
2022/07/22 03:39:31;;;;;;;6.90;4.07;;;17.50;99.90;;;;;;5059340;28;20756;-84
2022/07/22 03:41:57;;;;;;;6.60;4.33;;;17.50;99.90;;;;;;5060293;28;20480;-84
2022/07/22 03:44:24;;;;;;;5.80;3.93;;;17.50;99.90;;;;;;5058852;28;20473;-83
2022/07/22 03:46:51;;;;;;;7.70;4.90;;;17.50;99.90;;;;;;5060142;28;20795;-84
2022/07/22 03:49:18;;;;;;;5.20;4.30;;;17.50;99.90;;;;;;5060087;28;20512;-86
2022/07/22 03:51:45;;;;;;;5.03;3.77;;;17.50;99.90;;;;;;5059572;28;20490;-84
2022/07/22 03:54:12;;;;;;;7.30;3.60;;;17.50;99.90;;;;;;5059857;28;20553;-82
2022/07/22 03:56:40;;;;;;;7.13;5.40;;;17.60;99.90;;;;;;5060773;28;20490;-85
2022/07/22 03:59:07;;;;;;;7.13;4.00;;;17.60;99.90;;;;;;5059926;28;20455;-83
2022/07/22 04:01:34;;;;;;;4.83;4.33;;;17.60;99.90;;;;;;5062801;28;20838;-86
2022/07/22 04:04:01;;;;;;;4.80;4.30;;;17.50;99.90;;;;;;5060898;28;21415;-84
2022/07/22 04:06:27;;;;;;;6.60;4.53;;;17.50;99.90;;;;;;5064262;28;20463;-85
2022/07/22 04:08:54;;;;;;;8.43;6.10;;;17.50;99.90;;;;;;5063953;28;20475;-84
2022/07/22 04:11:21;;;;;;;9.23;4.20;;;17.50;99.90;;;;;;5064328;28;20454;-84
2022/07/22 04:13:50;;;;;;;5.73;4.07;;;17.50;99.90;;;;;;5064121;28;20478;-84
2022/07/22 04:16:17;;;;;;;6.33;4.40;;;17.50;99.90;;;;;;5064062;28;20549;-83
2022/07/22 04:18:43;;;;;;;7.37;4.50;;;17.50;99.90;;;;;;5065456;28;20894;-85
2022/07/22 04:21:10;;;;;;;5.23;4.10;;;17.50;99.90;;;;;;5075839;28;20556;-87
2022/07/22 04:23:39;;;;;;;5.40;4.03;;;17.50;99.90;;;;;;5070413;28;20500;-84
2022/07/22 04:26:06;;;;;;;8.83;4.57;;;17.40;99.90;;;;;;5061803;28;20459;-85
2022/07/22 04:28:34;;;;;;;8.17;4.10;;;17.40;99.90;;;;;;5063308;28;21148;-85
2022/07/22 04:31:03;;;;;;;8.30;4.60;;;17.50;99.90;;;;;;5062923;28;20490;-84
2022/07/22 04:33:30;;;;;;;8.37;4.83;;;17.50;99.90;;;;;;5063161;28;20472;-85
2022/07/22 04:35:57;;;;;;;11.00;4.30;;;17.50;99.90;;;;;;5063669;28;20519;-85
2022/07/22 04:38:24;;;;;;;6.57;4.27;;;17.50;99.90;;;;;;5063353;28;20458;-84
2022/07/22 04:40:51;;;;;;;8.57;4.00;;;17.60;99.90;;;;;;5062408;28;20451;-84
2022/07/22 04:43:18;;;;;;;5.30;4.23;;;17.40;99.90;;;;;;5063030;28;20511;-85
2022/07/22 04:45:45;;;;;;;4.37;3.20;;;17.40;99.90;;;;;;5063386;28;20504;-85
2022/07/22 04:48:13;;;;;;;5.10;3.97;;;17.50;99.90;;;;;;5062910;28;20566;-84
2022/07/22 04:50:40;;;;;;;8.57;4.60;;;17.50;99.90;;;;;;5063558;28;20501;-85
2022/07/22 04:53:07;;;;;;;8.53;4.13;;;17.50;99.90;;;;;;5062298;28;20926;-84
2022/07/22 04:55:34;;;;;;;6.53;3.60;;;17.50;99.90;;;;;;5063967;28;20479;-85
2022/07/22 04:58:01;;;;;;;4.83;3.70;;;17.60;99.90;;;;;;5064110;28;20557;-84
2022/07/22 05:00:28;;;;;;;6.90;3.77;;;17.70;99.90;;;;;;5064519;28;20449;-85
2022/07/22 05:02:55;;;;;;;6.53;4.00;;;17.60;99.90;;;;;;5063444;28;20487;-84
2022/07/22 05:05:24;;;;;;;5.10;3.47;;;17.70;99.90;;;;;;5063357;28;20878;-84
2022/07/22 05:07:51;;;;;;;5.20;3.60;;;17.60;99.90;;;;;;5064854;28;20451;-85
2022/07/22 05:10:18;;;;;;;5.90;3.27;;;17.60;99.90;;;;;;5064855;28;20483;-85
2022/07/22 05:12:45;;;;;;;6.53;3.33;;;17.50;99.90;;;;;;5063374;28;20842;-83
2022/07/22 05:15:11;;;;;;;6.70;3.20;;;17.50;99.90;;;;;;5064179;28;21077;-85
2022/07/22 05:17:38;;;;;;;6.53;2.83;;;17.50;99.90;;;;;;5065634;28;20485;-85
2022/07/22 05:20:06;;;;;;;5.70;3.00;;;17.60;99.90;;;;;;5064635;28;20561;-85
2022/07/22 05:22:34;;;;;;;9.30;3.57;;;17.70;99.90;;;;;;5064807;28;20492;-85
2022/07/22 05:25:01;;;;;;;5.60;2.97;;;17.70;99.90;;;;;;5056261;28;20451;-84
2022/07/22 05:27:28;;;;;;;7.70;3.80;;;17.70;99.90;;;;;;5063611;28;20483;-84
2022/07/22 05:29:55;;;;;;;4.83;2.83;;;17.70;99.90;;;;;;5062105;28;21029;-85
2022/07/22 05:32:22;;;;;;;8.03;3.20;;;17.80;99.90;;;;;;5061972;28;20475;-84
2022/07/22 05:34:49;;;;;;;5.90;2.90;;;17.80;99.90;;;;;;5062056;28;20561;-86
2022/07/22 05:37:16;;;;;;;6.40;3.10;;;17.90;99.90;;;;;;5062846;28;20459;-85
2022/07/22 05:39:45;;;;;;;9.60;3.70;;;17.90;99.90;;;;;;5062513;28;20451;-86
2022/07/22 05:42:12;;;;;;;8.33;3.57;;;17.90;99.90;;;;;;5063807;28;20455;-85
2022/07/22 05:44:38;;;;;;;5.57;3.60;;;17.90;99.90;;;;;;5062594;28;21024;-85
2022/07/22 05:47:06;;;;;;;8.03;4.30;;;17.80;99.90;;;;;;5063910;28;20460;-86
2022/07/22 05:49:33;;;;;;;8.73;3.57;;;17.90;99.90;;;;;;5063512;28;20482;-84
2022/07/22 05:52:00;;;;;;;5.93;4.00;;;17.80;99.90;;;;;;5069227;28;20452;-84
2022/07/22 05:54:27;;;;;;;7.03;4.13;;;17.90;99.90;;;;;;5062461;28;20476;-83
2022/07/22 05:56:56;;;;;;;8.13;3.27;;;17.80;99.90;;;;;;5068885;28;20885;-85
2022/07/22 05:59:23;;;;;;;5.80;4.30;;;17.80;99.90;;;;;;5068172;28;20453;-84
2022/07/22 06:01:50;;;;;;;7.63;4.00;;;17.80;99.90;;;;;;5067990;28;20462;-84
2022/07/22 06:04:17;;;;;;;4.93;2.80;;;17.80;99.90;;;;;;5067218;28;21043;-85
2022/07/22 06:06:44;;;;;;;7.30;2.40;;;17.70;99.90;;;;;;5067738;28;20458;-84
2022/07/22 06:09:11;;;;;;;2.90;1.90;;;17.60;99.90;;;;;;5066198;28;20463;-83
2022/07/22 06:11:38;;;;;;;8.00;2.60;;;17.50;99.90;;;;;;5066578;28;20461;-83
2022/07/22 06:14:06;;;;;;;7.73;3.13;;;17.50;99.90;;;;;;5065719;28;20553;-84
2022/07/22 06:16:34;;;;;;;6.10;2.47;;;17.50;99.90;;;;;;5065915;28;20460;-84
2022/07/22 06:19:01;;;;;;;6.57;2.77;;;17.60;99.90;;;;;;5067281;28;20455;-85
2022/07/22 06:21:28;;;;;;;3.20;1.90;;;17.70;99.90;;;;;;5077763;28;20469;-85
2022/07/22 06:23:54;;;;;;;10.40;3.03;;;17.70;99.90;;;;;;5064411;28;20552;-84
2022/07/22 06:26:22;;;;;;;6.63;2.10;;;17.80;99.90;;;;;;5064580;28;20482;-85
2022/07/22 06:28:49;;;;;;;5.03;2.73;;;17.70;99.90;;;;;;5064565;28;20487;-84
2022/07/22 06:31:17;;;;;;;4.03;1.87;;;17.70;99.90;;;;;;5062878;28;20530;-85
2022/07/22 06:33:44;;;;;;;6.93;2.10;;;17.60;99.90;;;;;;5058877;28;20607;-84
2022/07/22 06:36:11;;;;;;;5.10;2.70;;;17.50;99.90;;;;;;5064813;28;20912;-83
2022/07/22 06:38:38;;;;;;;3.33;1.80;;;17.70;99.90;;;;;;5064915;28;20509;-84
2022/07/22 06:41:05;;;;;;;3.93;2.03;;;17.80;99.90;;;;;;5064345;28;20541;-84
2022/07/22 06:43:32;;;;;;;5.20;1.90;;;17.90;99.90;;;;;;5063423;28;20479;-84
2022/07/22 06:46:04;;;;;;;5.63;2.10;;;17.90;99.90;;;;;;5063607;28;20472;-84
2022/07/22 06:48:34;;;;;;;5.00;1.80;;;17.90;99.90;;;;;;5065095;28;20466;-84
2022/07/22 06:51:01;;;;;;;5.10;2.33;;;18.00;62.40;;;;;;5053834;28;20991;-84
2022/07/22 06:53:27;;;;;;;4.60;1.73;;;18.00;87.80;;;;;;5042469;28;20468;-84
2022/07/22 06:55:55;;;;;;;4.80;1.80;;;18.10;99.90;;;;;;5043340;28;20476;-84
2022/07/22 06:58:21;;;;;;;6.27;2.17;;;18.20;99.90;;;;;;5041679;28;20456;-83
2022/07/22 07:00:51;;;;;;;5.80;2.37;;;18.20;75.40;;;;;;5058249;28;20540;-83
2022/07/22 07:03:18;;;;;;;6.17;2.23;;;18.30;19.80;;;;;;5040853;28;20529;-84
2022/07/22 07:05:47;;;;;;;4.87;2.37;;;18.40;59.20;;;;;;5060866;28;20448;-84
2022/07/22 07:08:13;;;;;;;4.40;2.20;;;18.40;76.10;;;;;;5059989;28;20475;-83
2022/07/22 07:10:40;;;;;;;5.07;3.80;;;18.40;99.60;;;;;;5087113;22;20598;-83
2022/07/22 07:13:07;;;;;;;5.77;4.00;;;18.50;98.80;;;;;;5029090;28;20742;-82
2022/07/22 07:15:34;;;;;;;7.27;3.70;;;18.50;89.70;;;;;;5033763;28;20443;-83
2022/07/22 07:18:01;;;;;;;5.93;3.80;;;18.60;99.30;;;;;;5036725;28;20448;-82
2022/07/22 07:20:28;;;;;;;6.13;3.90;;;18.50;67.20;;;;;;5027191;28;20468;-81
2022/07/22 07:22:56;;;;;;;5.13;2.93;;;18.50;1.00;;;;;;5023043;28;20525;-83
2022/07/22 07:25:23;;;;;;;4.83;2.43;;;18.60;9.30;;;;;;5015936;28;20459;-80
2022/07/22 07:27:50;;;;;;;6.63;2.63;;;18.60;59.90;;;;;;5034107;28;20618;-80
2022/07/22 07:30:17;;;;;;;4.30;3.40;;;18.70;66.70;;;;;;5023743;28;20517;-81
2022/07/22 07:32:44;;;;;;;6.67;3.43;;;18.70;95.50;;;;;;5026416;28;20519;-81
2022/07/22 07:35:12;;;;;;;4.40;2.63;;;18.80;99.90;;;;;;5027113;28;20514;-82
2022/07/22 07:37:39;;;;;;;6.53;3.00;;;18.90;82.90;;;;;;5035010;28;20532;-81
2022/07/22 07:40:11;;;;;;;4.50;2.80;;;18.90;10.10;;;;;;5033807;28;20554;-83
2022/07/22 07:42:48;;;;;;;3.93;2.60;;;18.90;1.00;;;;;;5034633;28;20437;-78
2022/07/22 07:45:21;;;;;;;7.93;2.73;;;18.80;1.00;;;;;;5034680;28;20494;-82
2022/07/22 07:47:48;;;;;;;5.13;2.80;;;18.80;1.00;;;;;;5034211;28;20524;-82
2022/07/22 07:50:15;;;;;;;9.47;2.87;;;18.90;1.00;;;;;;5034346;28;20484;-81
2022/07/22 07:52:44;;;;;;;4.60;2.37;;;18.90;1.00;;;;;;5037315;28;20464;-81
2022/07/22 07:55:17;;;;;;;4.07;2.53;;;18.90;1.00;;;;;;5015332;28;20560;-79
2022/07/22 07:57:46;;;;;;;4.93;2.90;;;19.00;1.00;;;;;;5039603;28;20452;-82
2022/07/22 08:00:18;;;;;;;4.50;2.70;;;19.00;1.00;;;;;;5049052;28;20517;-78
2022/07/22 08:02:45;;;;;;;5.13;2.73;;;19.00;1.00;;;;;;5037244;28;20778;-79
2022/07/22 08:05:12;;;;;;;4.60;2.80;;;19.00;1.00;;;;;;5031476;28;20876;-79
2022/07/22 08:07:39;;;;;;;3.07;2.53;;;19.00;1.00;;;;;;5032148;28;20538;-79
2022/07/22 08:10:07;;;;;;;7.00;4.50;;;19.00;1.00;;;;;;5026239;28;20584;-81
2022/07/22 08:12:36;;;;;;;5.00;4.30;;;18.90;1.00;;;;;;5031855;28;20538;-81
2022/07/22 08:15:10;;;;;;;5.10;3.80;;;19.00;1.00;;;;;;5032497;28;20521;-78
2022/07/22 08:17:39;;;;;;;6.07;5.50;;;19.00;1.00;;;;;;5033918;28;20460;-78
2022/07/22 08:20:07;;;;;;;6.97;6.27;;;19.00;1.00;;;;;;5024163;28;20480;-81
2022/07/22 08:22:34;;;;;;;7.27;6.57;;;19.00;1.00;;;;;;5033223;28;20464;-80
2022/07/22 08:25:01;;;;;;;5.27;3.70;;;19.00;1.00;;;;;;5032374;28;20547;-79
2022/07/22 08:27:28;;;;;;;6.63;2.77;;;19.00;1.00;;;;;;5028446;28;20488;-82
2022/07/22 08:29:56;;;;;;;3.10;2.53;;;19.20;1.00;;;;;;5028578;28;20484;-82
2022/07/22 08:32:23;;;;;;;3.53;2.60;;;19.20;1.00;;;;;;5029373;28;20547;-81
2022/07/22 08:34:51;;;;;;;4.70;2.70;;;19.20;1.00;;;;;;5036174;28;20461;-77
2022/07/22 08:37:21;;;;;;;3.93;2.90;;;19.30;1.00;;;;;;5032947;28;20452;-78
2022/07/22 08:39:48;;;;;;;4.93;3.40;;;19.20;1.00;;;;;;5032184;28;20770;-81
2022/07/22 08:42:15;;;;;;;4.70;3.10;;;19.30;1.00;;;;;;5030576;28;20465;-79
2022/07/22 08:44:42;;;;;;;5.60;3.30;;;19.30;1.00;;;;;;5030443;28;20535;-81
2022/07/22 08:47:10;;;;;;;4.07;3.67;;;19.40;1.00;;;;;;5033952;28;20464;-81
2022/07/22 08:49:37;;;;;;;4.53;3.40;;;19.30;1.00;;;;;;5035251;28;20499;-79
2022/07/22 08:52:04;;;;;;;5.10;4.03;;;19.40;1.00;;;;;;5036864;28;20592;-78
2022/07/22 08:54:30;;;;;;;4.00;3.60;;;19.40;99.90;;;;;;5022626;28;20486;-81
2022/07/22 08:56:57;;;;;;;6.10;4.17;;;19.40;1.00;;;;;;5017757;28;20891;-82
2022/07/22 08:59:25;;;;;;;5.80;4.37;;;19.40;1.00;;;;;;5036881;28;20492;-81
2022/07/22 09:02:06;;;;;;;5.30;4.10;;;19.40;1.00;;;;;;5037845;28;21008;-80
2022/07/22 09:04:52;;;;;;;4.80;4.20;;;19.30;1.00;;;;;;5036554;28;20453;-81
2022/07/22 09:07:28;;;;;;;4.30;3.73;;;19.30;1.00;;;;;;5037647;28;20453;-80
2022/07/22 09:09:56;;;;;;;5.83;3.43;;;19.20;1.00;;;;;;5036940;28;20522;-82
2022/07/22 09:12:23;;;;;;;5.00;3.57;;;19.20;99.90;;;;;;5033694;28;20547;-80
2022/07/22 09:14:51;;;;;;;5.50;3.57;;;19.30;99.90;;;;;;5025694;28;20536;-81
2022/07/22 09:17:29;;;;;;;6.87;5.80;;;19.40;1.00;;;;;;5030268;28;20551;-80
2022/07/22 09:19:59;;;;;;;7.57;6.23;;;19.20;1.00;;;;;;5026525;28;20505;-81
2022/07/22 09:22:37;;;;;;;6.87;6.17;;;19.20;1.00;;;;;;5034853;28;20473;-82
2022/07/22 09:25:32;;;;;;;7.90;6.90;;;19.20;1.00;;;;;;5031210;28;20453;-81
2022/07/22 09:28:11;;;;;;;9.13;7.17;;;19.30;1.00;;;;;;5023183;28;20533;-80
2022/07/22 09:30:40;;;;;;;6.87;6.03;;;19.40;1.00;;;;;;5022881;28;20488;-82
2022/07/22 09:33:08;;;;;;;10.40;6.27;;;19.40;1.00;;;;;;5033194;28;20556;-80
2022/07/22 09:35:37;;;;;;;9.30;5.83;;;19.30;1.00;;;;;;5036176;28;20528;-79
2022/07/22 09:38:05;;;;;;;7.93;7.07;;;19.40;1.00;;;;;;5032703;28;21008;-82
2022/07/22 09:40:34;;;;;;;7.30;6.27;;;19.10;99.90;;;;;;5035258;28;20498;-81
2022/07/22 09:43:03;;;;;;;9.13;6.70;;;19.20;1.00;;;;;;5035233;28;20456;-79
2022/07/22 09:45:31;;;;;;;7.47;6.60;;;19.20;99.90;;;;;;5036779;28;20547;-80
2022/07/22 09:48:01;;;;;;;7.03;6.40;;;19.30;1.00;;;;;;5036110;28;20462;-79
2022/07/22 09:50:30;;;;;;;6.50;5.90;;;19.40;1.00;;;;;;5031189;28;20567;-78
2022/07/22 09:53:00;;;;;;;8.10;6.60;;;19.40;1.00;;;;;;5035258;28;20449;-80
2022/07/22 09:55:30;;;;;;;11.10;6.57;;;19.40;1.00;;;;;;5036519;28;20445;-78
2022/07/22 09:57:58;;;;;;;9.70;7.27;;;19.60;1.00;;;;;;5035987;28;20457;-79
2022/07/22 10:00:28;;;;;;;8.50;6.83;;;19.60;1.00;;;;;;5023226;28;20478;-80
2022/07/22 10:02:56;;;;;;;7.20;6.47;;;19.70;1.00;;;;;;5033837;28;20487;-79
2022/07/22 10:05:25;;;;;;;7.43;6.67;;;19.80;85.40;;;;;;5033323;28;20556;-79
2022/07/22 10:07:53;;;;;;;7.50;6.80;;;19.90;99.90;;;;;;5027002;28;20570;-78
2022/07/22 10:10:24;;;;;;;7.83;6.90;;;20.10;99.90;;;;;;5029892;28;20484;-81
2022/07/22 10:12:53;;;;;;;12.57;7.40;;;20.00;99.90;;;;;;5033782;28;20459;-80
2022/07/22 10:15:21;;;;;;;7.90;6.97;;;20.00;1.00;;;;;;5036065;28;20532;-80
2022/07/22 10:17:50;;;;;;;10.73;6.50;;;20.20;99.90;;;;;;5035608;28;20896;-80
2022/07/22 10:20:19;;;;;;;8.73;7.83;;;20.40;1.00;;;;;;5036015;28;20536;-79
2022/07/22 10:22:55;;;;;;;8.17;7.47;;;20.40;1.00;;;;;;5035492;28;20543;-79
2022/07/22 10:25:25;;;;;;;6.97;5.80;;;20.40;1.00;;;;;;5035813;28;20523;-80
2022/07/22 10:27:54;;;;;;;7.47;5.53;;;20.50;99.90;;;;;;5032571;28;20453;-81
2022/07/22 10:30:23;;;;;;;8.73;7.50;;;20.60;1.00;;;;;;5033734;28;20522;-80
2022/07/22 10:33:11;;;;;;;8.67;7.67;;;20.60;1.00;;;;;;5045214;28;20515;-80
2022/07/22 10:35:54;;;;;;;9.20;8.23;;;20.40;99.90;;;;;;5037935;28;20723;-79
2022/07/22 10:38:24;;;;;;;10.73;9.10;;;20.70;1.00;;;;;;5036509;28;20448;-80
2022/07/22 10:40:55;;;;;;;10.60;9.43;;;20.70;99.90;;;;;;5038116;28;20457;-78
2022/07/22 10:43:24;;;;;;;11.90;9.97;;;20.90;99.90;;;;;;5034422;28;20437;-80
2022/07/22 10:45:54;;;;;;;11.60;10.50;;;21.00;99.90;;;;;;5035969;28;20544;-79
2022/07/22 10:48:23;;;;;;;13.47;11.20;;;21.00;99.90;;;;;;5035950;28;20483;-80
2022/07/22 10:50:58;;;;;;;15.57;13.97;;;21.10;1.00;;;;;;5035485;28;20559;-78
2022/07/22 10:53:40;;;;;;;16.53;13.03;;;21.30;99.90;;;;;;5035561;28;20433;-78
2022/07/22 10:56:15;;;;;;;18.03;15.00;;;21.30;74.60;;;;;;5036076;28;20445;-79
2022/07/22 10:58:52;;;;;;;15.23;13.63;;;21.20;99.90;;;;;;5036075;28;20436;-80
2022/07/22 11:01:21;;;;;;;16.00;14.33;;;20.80;99.90;;;;;;5035056;28;20464;-80
2022/07/22 11:03:50;;;;;;;15.20;13.60;;;21.00;1.00;;;;;;5035688;28;20450;-79
2022/07/22 11:06:20;;;;;;;16.10;14.40;;;21.10;1.00;;;;;;5032510;28;20476;-78
2022/07/22 11:08:48;;;;;;;16.77;15.03;;;21.10;99.90;;;;;;5035834;28;20472;-79
2022/07/22 11:11:17;;;;;;;13.47;12.17;;;21.10;1.00;;;;;;5035165;28;20496;-79
2022/07/22 11:13:45;;;;;;;15.17;13.40;;;21.10;89.60;;;;;;5033142;28;20539;-81
2022/07/22 11:16:17;;;;;;;17.10;15.30;;;21.10;99.90;;;;;;5036496;28;20459;-80
2022/07/22 11:18:52;;;;;;;18.77;15.80;;;20.70;92.60;;;;;;5036428;28;20531;-82
2022/07/22 11:21:22;;;;;;;18.67;15.10;;;20.70;1.00;;;;;;5046490;28;20491;-81
2022/07/22 11:23:51;;;;;;;15.83;12.80;;;20.70;99.90;;;;;;5043635;28;20466;-79
2022/07/22 11:26:25;;;;;;;16.17;13.60;;;20.80;99.90;;;;;;5046445;28;20476;-78
2022/07/22 11:28:52;;;;;;;18.70;15.63;;;21.00;2.90;;;;;;5028701;28;20477;-79
2022/07/22 11:31:20;;;;;;;20.97;16.63;;;21.00;1.00;;;;;;5035014;28;20926;-81
2022/07/22 11:33:48;;;;;;;23.03;19.93;;;21.10;1.00;;;;;;5034269;28;20958;-79
2022/07/22 11:36:15;;;;;;;20.07;16.87;;;20.90;99.90;;;;;;5033776;28;20531;-79
2022/07/22 11:38:46;;;;;;;21.67;16.57;;;21.00;99.90;;;;;;5035124;28;20469;-78
2022/07/22 11:41:14;;;;;;;19.70;15.97;;;21.10;26.60;;;;;;5026724;28;21045;-80
2022/07/22 11:43:45;;;;;;;21.40;16.40;;;21.20;99.90;;;;;;5034130;28;20455;-79
2022/07/22 11:46:13;;;;;;;18.97;15.10;;;21.30;1.00;;;;;;5031765;28;20445;-80
2022/07/22 11:48:41;;;;;;;21.83;17.30;;;21.50;93.50;;;;;;5031321;28;20516;-78
2022/07/22 11:51:10;;;;;;;20.53;15.60;;;21.60;99.90;;;;;;5033569;28;21028;-80
2022/07/22 11:53:37;;;;;;;19.07;16.00;;;21.20;1.00;;;;;;5031164;28;20468;-82
2022/07/22 11:56:05;;;;;;;23.23;17.93;;;21.40;99.90;;;;;;5034775;28;20457;-79
2022/07/22 11:58:37;;;;;;;20.10;16.37;;;21.50;40.70;;;;;;5035379;28;20531;-78
2022/07/22 12:01:07;;;;;;;22.83;15.70;;;21.50;99.90;;;;;;5035518;28;20560;-79
2022/07/22 12:03:35;;;;;;;21.37;17.30;;;21.70;1.00;;;;;;5033853;28;20441;-82
2022/07/22 12:06:03;;;;;;;21.30;17.00;;;22.00;99.90;;;;;;5035590;28;20453;-79
2022/07/22 12:08:30;;;;;;;19.60;15.53;;;22.20;1.00;;;;;;5036210;28;20466;-81
2022/07/22 12:10:58;;;;;;;19.43;15.20;;;22.10;1.00;;;;;;5032031;28;20546;-80
2022/07/22 12:13:30;;;;;;;19.17;15.80;;;22.30;1.00;;;;;;5033748;28;20576;-79
2022/07/22 12:15:57;;;;;;;18.20;14.80;;;22.30;1.00;;;;;;5034667;28;20456;-80
2022/07/22 12:18:28;;;;;;;18.87;15.10;;;22.20;1.00;;;;;;5035613;28;20537;-81
2022/07/22 12:20:56;;;;;;;18.97;15.73;;;22.50;1.00;;;;;;5036683;28;20472;-81
2022/07/22 12:23:25;;;;;;;22.07;16.13;;;22.70;99.90;;;;;;5038181;28;20457;-78
2022/07/22 12:26:09;;;;;;;21.27;15.23;;;22.40;1.00;;;;;;5035882;28;20520;-79
2022/07/22 12:28:36;;;;;;;17.53;15.30;;;22.50;1.00;;;;;;5037666;28;20475;-80
2022/07/22 12:31:03;;;;;;;18.03;14.37;;;22.50;99.90;;;;;;5038738;28;20543;-82
2022/07/22 12:33:31;;;;;;;22.30;16.60;;;22.50;99.90;;;;;;5038371;28;21015;-82
2022/07/22 12:36:00;;;;;;;20.33;15.37;;;22.40;1.00;;;;;;5039065;28;20448;-80
2022/07/22 12:38:27;;;;;;;21.43;15.93;;;22.20;53.80;;;;;;5039199;28;20479;-83
2022/07/22 12:40:54;;;;;;;19.73;15.70;;;22.20;99.90;;;;;;5039014;28;20844;-79
2022/07/22 12:43:25;;;;;;;21.97;16.40;;;22.30;99.90;;;;;;5037498;28;20520;-81
2022/07/22 12:45:53;;;;;;;21.63;16.23;;;22.50;99.90;;;;;;5038620;28;20968;-79
2022/07/22 12:48:28;;;;;;;19.13;14.90;;;22.70;1.00;;;;;;5038132;28;20822;-80
2022/07/22 12:50:59;;;;;;;20.60;16.83;;;22.80;99.90;;;;;;5038887;28;20456;-81
2022/07/22 12:53:29;;;;;;;19.63;15.93;;;22.50;99.90;;;;;;5036992;28;20508;-79